createdAt,value
2019-02-05T00:00:51.445Z,7.20
2019-02-05T00:01:52.355Z,6.12
2019-02-05T00:02:53.205Z,6.72
2019-02-05T00:03:54.091Z,6.30
2019-02-05T00:04:55.436Z,5.85
2019-02-05T00:05:56.352Z,5.83
2019-02-05T00:06:57.205Z,7.15
2019-02-05T00:07:58.043Z,6.33
2019-02-05T00:08:58.879Z,6.97
2019-02-05T00:09:59.760Z,8.05
2019-02-05T00:11:00.581Z,7.15
2019-02-05T00:12:01.406Z,6.97
2019-02-05T00:13:02.394Z,5.87
2019-02-05T00:14:03.667Z,7.25
2019-02-05T00:15:04.535Z,5.97
2019-02-05T00:16:05.453Z,5.92
2019-02-05T00:17:06.375Z,5.72
2019-02-05T00:18:07.242Z,6.10
2019-02-05T00:19:08.166Z,5.83
2019-02-05T00:20:09.017Z,7.37
2019-02-05T00:21:09.853Z,7.83
2019-02-05T00:22:10.782Z,5.90
2019-02-05T00:23:11.920Z,6.05
2019-02-05T00:24:12.772Z,7.42
2019-02-05T00:25:13.598Z,7.58
2019-02-05T00:26:14.464Z,6.62
2019-02-05T00:27:15.301Z,6.75
2019-02-05T00:28:16.401Z,7.00
2019-02-05T00:29:17.206Z,6.58
2019-02-05T00:30:18.110Z,6.50
2019-02-05T00:31:19.340Z,5.85
2019-02-05T00:32:20.169Z,5.87
2019-02-05T00:33:21.042Z,6.45
2019-02-05T00:34:21.979Z,7.97
2019-02-05T00:35:22.838Z,6.08
2019-02-05T00:36:23.664Z,8.58
2019-02-05T00:37:24.526Z,5.80
2019-02-05T00:38:25.374Z,7.67
2019-02-05T00:39:26.187Z,9.63
2019-02-05T00:40:27.456Z,7.72
2019-02-05T00:41:28.411Z,5.90
2019-02-05T00:42:29.283Z,5.30
2019-02-05T00:43:30.102Z,6.60
2019-02-05T00:44:30.928Z,6.60
2019-02-05T00:45:31.745Z,9.40
2019-02-05T00:46:32.614Z,6.83
2019-02-05T00:47:33.441Z,7.33
2019-02-05T00:48:34.289Z,8.30
2019-02-05T00:49:35.113Z,8.63
2019-02-05T00:50:35.958Z,7.50
2019-02-05T00:51:36.781Z,7.85
2019-02-05T00:52:37.625Z,7.25
2019-02-05T00:53:38.462Z,6.90
2019-02-05T00:54:39.296Z,6.45
2019-02-05T00:55:40.163Z,11.25
2019-02-05T00:56:40.988Z,7.83
2019-02-05T00:57:42.342Z,8.03
2019-02-05T00:58:43.184Z,6.28
2019-02-05T00:59:44.110Z,7.35
2019-02-05T01:00:44.978Z,9.05
2019-02-05T01:01:45.814Z,7.20
2019-02-05T01:02:46.699Z,7.17
2019-02-05T01:03:47.621Z,6.47
2019-02-05T01:04:48.790Z,7.75
2019-02-05T01:05:49.834Z,8.20
2019-02-05T01:07:52.388Z,8.08
2019-02-05T01:08:53.504Z,6.72
2019-02-05T01:09:54.610Z,7.37
2019-02-05T01:10:55.479Z,6.20
2019-02-05T01:11:56.531Z,8.93
2019-02-05T01:12:57.680Z,7.92
2019-02-05T01:13:58.611Z,7.55
2019-02-05T01:14:59.802Z,7.15
2019-02-05T01:16:01.121Z,8.50
2019-02-05T01:17:02.085Z,7.78
2019-02-05T01:18:03.050Z,7.90
2019-02-05T01:19:03.925Z,9.78
2019-02-05T01:20:04.899Z,9.18
2019-02-05T01:21:05.853Z,8.00
2019-02-05T01:22:07.023Z,7.50
2019-02-05T01:23:08.094Z,8.58
2019-02-05T01:24:09.020Z,9.10
2019-02-05T01:25:10.479Z,7.50
2019-02-05T01:26:11.423Z,8.30
2019-02-05T01:27:12.419Z,9.65
2019-02-05T01:28:13.509Z,7.45
2019-02-05T01:29:14.617Z,8.48
2019-02-05T01:30:15.894Z,8.98
2019-02-05T01:31:16.901Z,8.65
2019-02-05T01:32:18.061Z,7.35
2019-02-05T01:33:20.267Z,7.08
2019-02-05T01:34:21.715Z,7.92
2019-02-05T01:35:22.653Z,7.97
2019-02-05T01:36:23.523Z,9.03
2019-02-05T01:37:24.354Z,7.92
2019-02-05T01:38:25.182Z,7.75
2019-02-05T01:39:26.123Z,8.03
2019-02-05T01:40:26.959Z,8.95
2019-02-05T01:41:27.882Z,8.93
2019-02-05T01:42:28.708Z,8.20
2019-02-05T01:43:29.975Z,9.90
2019-02-05T01:44:30.784Z,7.78
2019-02-05T01:45:31.621Z,8.83
2019-02-05T01:46:32.546Z,8.08
2019-02-05T01:47:33.394Z,8.88
2019-02-05T01:48:34.233Z,8.30
2019-02-05T01:49:35.063Z,8.13
2019-02-05T01:50:35.885Z,9.18
2019-02-05T01:51:37.119Z,7.25
2019-02-05T01:52:38.094Z,7.80
2019-02-05T01:53:39.014Z,8.60
2019-02-05T01:54:39.974Z,9.93
2019-02-05T01:55:40.814Z,8.45
2019-02-05T01:56:41.645Z,8.48
2019-02-05T01:57:42.514Z,7.67
2019-02-05T01:58:43.377Z,10.00
2019-02-05T01:59:44.213Z,10.30
2019-02-05T02:00:45.643Z,10.43
2019-02-05T02:01:46.474Z,10.32
2019-02-05T02:02:47.301Z,9.33
2019-02-05T02:03:48.170Z,9.73
2019-02-05T02:04:49.002Z,11.30
2019-02-05T02:05:49.826Z,9.68
2019-02-05T02:06:50.871Z,10.68
2019-02-05T02:07:51.695Z,10.20
2019-02-05T02:08:52.889Z,10.00
2019-02-05T02:09:53.803Z,11.25
2019-02-05T02:10:54.638Z,9.15
2019-02-05T02:11:55.459Z,10.08
2019-02-05T02:12:56.328Z,9.25
2019-02-05T02:13:57.221Z,11.05
2019-02-05T02:14:58.045Z,10.85
2019-02-05T02:15:58.862Z,9.63
2019-02-05T02:16:59.701Z,9.43
2019-02-05T02:18:01.063Z,8.70
2019-02-05T02:19:01.999Z,10.80
2019-02-05T02:20:02.833Z,12.37
2019-02-05T02:21:03.664Z,12.28
2019-02-05T02:22:04.506Z,14.63
2019-02-05T02:23:05.362Z,9.48
2019-02-05T02:24:06.198Z,11.80
2019-02-05T02:25:07.022Z,10.45
2019-02-05T02:26:08.243Z,11.00
2019-02-05T02:27:09.073Z,9.90
2019-02-05T02:28:10.090Z,10.13
2019-02-05T02:29:10.910Z,11.65
2019-02-05T02:30:11.743Z,11.03
2019-02-05T02:31:12.686Z,12.33
2019-02-05T02:32:13.521Z,10.23
2019-02-05T02:33:14.441Z,13.20
2019-02-05T02:34:15.275Z,11.22
2019-02-05T02:35:16.501Z,10.88
2019-02-05T02:36:17.470Z,9.73
2019-02-05T02:37:18.303Z,10.88
2019-02-05T02:38:19.227Z,11.10
2019-02-05T02:39:20.066Z,14.15
2019-02-05T02:40:20.897Z,10.25
2019-02-05T02:41:21.771Z,10.53
2019-02-05T02:42:22.847Z,12.45
2019-02-05T02:43:23.680Z,11.80
2019-02-05T02:44:24.997Z,11.97
2019-02-05T02:45:25.829Z,11.18
2019-02-05T02:46:26.778Z,10.50
2019-02-05T02:47:27.903Z,10.63
2019-02-05T02:48:28.948Z,13.98
2019-02-05T02:49:29.771Z,12.58
2019-02-05T02:50:30.703Z,12.18
2019-02-05T02:51:31.564Z,10.58
2019-02-05T02:52:32.549Z,13.03
2019-02-05T02:53:33.701Z,11.48
2019-02-05T02:54:34.623Z,11.60
2019-02-05T02:55:35.465Z,11.55
2019-02-05T02:56:36.511Z,13.48
2019-02-05T02:57:37.473Z,11.88
2019-02-05T02:58:38.328Z,12.05
2019-02-05T02:59:39.264Z,12.50
2019-02-05T03:00:40.118Z,11.57
2019-02-05T03:01:41.559Z,10.93
2019-02-05T03:02:42.508Z,12.55
2019-02-05T03:03:43.360Z,11.45
2019-02-05T03:04:44.346Z,13.35
2019-02-05T03:05:45.254Z,12.05
2019-02-05T03:06:46.085Z,12.00
2019-02-05T03:07:47.000Z,12.73
2019-02-05T03:08:47.852Z,11.63
2019-02-05T03:09:49.225Z,13.03
2019-02-05T03:10:50.109Z,13.05
2019-02-05T03:11:51.024Z,12.40
2019-02-05T03:12:51.851Z,14.20
2019-02-05T03:13:52.719Z,13.03
2019-02-05T03:14:53.551Z,13.30
2019-02-05T03:15:54.410Z,15.03
2019-02-05T03:16:55.379Z,11.28
2019-02-05T03:17:56.620Z,13.18
2019-02-05T03:18:57.577Z,12.63
2019-02-05T03:19:58.756Z,13.88
2019-02-05T03:20:59.691Z,13.38
2019-02-05T03:22:00.627Z,12.78
2019-02-05T03:23:01.544Z,13.35
2019-02-05T03:24:02.472Z,14.55
2019-02-05T03:25:03.435Z,13.32
2019-02-05T03:26:04.763Z,12.30
2019-02-05T03:27:17.002Z,16.05
2019-02-05T03:28:08.337Z,11.45
2019-02-05T03:29:09.291Z,17.02
2019-02-05T03:30:10.133Z,14.47
2019-02-05T03:31:11.068Z,13.13
2019-02-05T03:32:12.026Z,14.60
2019-02-05T03:33:12.987Z,15.55
2019-02-05T03:34:14.098Z,14.28
2019-02-05T03:35:14.926Z,13.43
2019-02-05T03:36:15.761Z,13.53
2019-02-05T03:37:16.677Z,13.08
2019-02-05T03:38:17.627Z,14.40
2019-02-05T03:39:18.550Z,13.72
2019-02-05T03:40:19.384Z,15.60
2019-02-05T03:41:20.303Z,14.68
2019-02-05T03:42:21.547Z,14.10
2019-02-05T03:43:22.515Z,14.95
2019-02-05T03:44:23.339Z,15.32
2019-02-05T03:45:24.194Z,15.43
2019-02-05T03:46:25.123Z,14.10
2019-02-05T03:47:26.056Z,13.30
2019-02-05T03:48:26.883Z,13.22
2019-02-05T03:49:27.714Z,13.35
2019-02-05T03:50:28.947Z,14.45
2019-02-05T03:51:29.836Z,16.42
2019-02-05T03:52:30.675Z,15.32
2019-02-05T03:53:31.617Z,15.08
2019-02-05T03:54:32.533Z,14.83
2019-02-05T03:55:33.367Z,15.70
2019-02-05T03:56:34.337Z,17.05
2019-02-05T03:57:35.253Z,19.82
2019-02-05T03:58:36.097Z,14.18
2019-02-05T03:59:37.428Z,15.43
2019-02-05T04:00:38.303Z,15.40
2019-02-05T04:01:39.274Z,15.18
2019-02-05T04:02:40.220Z,12.43
2019-02-05T04:03:41.174Z,15.53
2019-02-05T04:04:42.118Z,15.40
2019-02-05T04:05:43.038Z,14.30
2019-02-05T04:06:44.010Z,12.95
2019-02-05T04:07:45.132Z,15.35
2019-02-05T04:08:45.973Z,16.97
2019-02-05T04:09:46.938Z,14.38
2019-02-05T04:10:47.773Z,14.28
2019-02-05T04:11:48.597Z,15.60
2019-02-05T04:12:49.421Z,18.48
2019-02-05T04:13:50.253Z,18.70
2019-02-05T04:14:51.198Z,16.05
2019-02-05T04:15:52.028Z,15.55
2019-02-05T04:16:53.244Z,14.58
2019-02-05T04:17:54.171Z,16.40
2019-02-05T04:18:55.016Z,16.87
2019-02-05T04:19:55.881Z,17.05
2019-02-05T04:20:56.859Z,14.90
2019-02-05T04:21:57.929Z,18.12
2019-02-05T04:22:58.767Z,17.60
2019-02-05T04:23:59.595Z,16.65
2019-02-05T04:25:00.430Z,16.85
2019-02-05T04:26:01.816Z,16.23
2019-02-05T04:27:02.748Z,14.98
2019-02-05T04:28:03.676Z,17.05
2019-02-05T04:29:04.514Z,14.13
2019-02-05T04:30:05.451Z,14.80
2019-02-05T04:31:06.413Z,16.80
2019-02-05T04:32:07.248Z,15.53
2019-02-05T04:33:08.183Z,15.90
2019-02-05T04:34:09.419Z,14.47
2019-02-05T04:35:10.335Z,15.28
2019-02-05T04:36:11.320Z,15.90
2019-02-05T04:37:12.245Z,17.95
2019-02-05T04:38:13.166Z,16.97
2019-02-05T04:39:14.132Z,15.43
2019-02-05T04:40:15.055Z,17.57
2019-02-05T04:41:15.978Z,15.28
2019-02-05T04:42:16.816Z,19.42
2019-02-05T04:43:18.057Z,18.05
2019-02-05T04:44:19.030Z,15.80
2019-02-05T04:45:19.966Z,18.87
2019-02-05T04:46:20.813Z,16.45
2019-02-05T04:47:21.718Z,16.80
2019-02-05T04:48:22.658Z,17.92
2019-02-05T04:49:23.664Z,18.55
2019-02-05T04:50:24.597Z,15.30
2019-02-05T04:51:25.620Z,19.32
2019-02-05T04:52:26.437Z,18.75
2019-02-05T04:53:27.285Z,16.10
2019-02-05T04:54:28.258Z,15.10
2019-02-05T04:55:30.294Z,16.65
2019-02-05T04:56:31.231Z,16.93
2019-02-05T04:57:32.074Z,20.52
2019-02-05T04:58:33.026Z,15.10
2019-02-05T04:59:33.966Z,17.40
2019-02-05T05:00:35.410Z,16.15
2019-02-05T05:01:36.232Z,16.10
2019-02-05T05:02:37.055Z,15.58
2019-02-05T05:03:37.996Z,16.87
2019-02-05T05:04:39.056Z,18.02
2019-02-05T05:05:39.878Z,16.52
2019-02-05T05:06:40.817Z,16.12
2019-02-05T05:07:41.780Z,17.25
2019-02-05T05:08:42.953Z,16.32
2019-02-05T05:09:44.188Z,14.47
2019-02-05T05:10:45.114Z,16.52
2019-02-05T05:11:46.033Z,15.45
2019-02-05T05:12:46.858Z,13.53
2019-02-05T05:13:47.737Z,18.48
2019-02-05T05:14:48.695Z,15.75
2019-02-05T05:15:49.557Z,14.65
2019-02-05T05:17:50.851Z,17.55
2019-02-05T05:18:51.785Z,17.98
2019-02-05T05:19:52.713Z,14.18
2019-02-05T05:20:53.538Z,14.15
2019-02-05T05:21:54.370Z,17.00
2019-02-05T05:22:55.327Z,14.38
2019-02-05T05:23:56.167Z,17.45
2019-02-05T05:24:57.097Z,13.48
2019-02-05T05:25:58.419Z,16.65
2019-02-05T05:26:59.353Z,14.73
2019-02-05T05:28:09.775Z,14.63
2019-02-05T05:29:02.949Z,16.52
2019-02-05T05:30:03.943Z,15.13
2019-02-05T05:31:04.905Z,15.40
2019-02-05T05:32:05.778Z,13.00
2019-02-05T05:33:06.729Z,15.00
2019-02-05T05:34:07.659Z,13.20
2019-02-05T05:35:08.998Z,13.62
2019-02-05T05:36:09.852Z,15.38
2019-02-05T05:37:10.719Z,17.65
2019-02-05T05:38:11.627Z,15.50
2019-02-05T05:39:12.460Z,13.93
2019-02-05T05:40:13.302Z,15.35
2019-02-05T05:41:14.262Z,16.50
2019-02-05T05:42:15.257Z,12.70
2019-02-05T05:43:16.402Z,16.65
2019-02-05T05:44:17.329Z,15.75
2019-02-05T05:45:18.273Z,19.07
2019-02-05T05:46:19.110Z,17.87
2019-02-05T05:47:20.051Z,16.35
2019-02-05T05:48:20.925Z,15.08
2019-02-05T05:49:21.848Z,19.00
2019-02-05T05:50:22.683Z,16.55
2019-02-05T05:51:24.057Z,16.40
2019-02-05T05:52:24.930Z,16.02
2019-02-05T05:53:25.894Z,17.02
2019-02-05T05:54:26.751Z,18.40
2019-02-05T05:55:27.681Z,15.23
2019-02-05T05:56:28.612Z,13.90
2019-02-05T05:57:30.523Z,15.48
2019-02-05T05:58:31.402Z,16.37
2019-02-05T05:59:32.320Z,14.70
2019-02-05T06:00:33.743Z,14.53
2019-02-05T06:01:34.819Z,14.73
2019-02-05T06:02:35.802Z,14.28
2019-02-05T06:03:36.795Z,15.48
2019-02-05T06:04:37.676Z,13.62
2019-02-05T06:05:38.525Z,15.88
2019-02-05T06:06:39.492Z,14.30
2019-02-05T06:07:40.413Z,13.88
2019-02-05T06:08:41.755Z,16.27
2019-02-05T06:09:42.756Z,13.48
2019-02-05T06:10:43.675Z,14.87
2019-02-05T06:11:44.551Z,15.53
2019-02-05T06:12:45.474Z,19.67
2019-02-05T06:13:46.406Z,15.95
2019-02-05T06:14:47.286Z,11.18
2019-02-05T06:15:48.113Z,15.45
2019-02-05T06:16:49.378Z,13.72
2019-02-05T06:17:50.542Z,17.10
2019-02-05T06:18:51.489Z,15.40
2019-02-05T06:19:52.420Z,14.70
2019-02-05T06:20:53.377Z,13.00
2019-02-05T06:21:54.411Z,15.55
2019-02-05T06:22:55.310Z,17.95
2019-02-05T06:23:56.286Z,14.95
2019-02-05T06:24:57.166Z,13.68
2019-02-05T06:25:58.113Z,13.45
2019-02-05T06:26:59.042Z,14.18
2019-02-05T06:27:59.912Z,15.40
2019-02-05T06:29:00.832Z,14.20
2019-02-05T06:30:01.665Z,14.30
2019-02-05T06:31:02.514Z,15.58
2019-02-05T06:32:03.455Z,14.00
2019-02-05T06:33:04.434Z,15.60
2019-02-05T06:34:05.875Z,14.07
2019-02-05T06:35:06.708Z,13.88
2019-02-05T06:36:07.545Z,13.43
2019-02-05T06:37:08.484Z,13.95
2019-02-05T06:38:09.453Z,16.10
2019-02-05T06:39:10.296Z,13.30
2019-02-05T06:40:11.135Z,14.80
2019-02-05T06:41:12.079Z,15.85
2019-02-05T06:42:13.327Z,16.82
2019-02-05T06:43:14.274Z,15.20
2019-02-05T06:44:15.114Z,13.68
2019-02-05T06:45:16.056Z,12.20
2019-02-05T06:46:16.893Z,13.48
2019-02-05T06:47:17.723Z,13.88
2019-02-05T06:48:18.807Z,14.13
2019-02-05T06:49:19.632Z,16.23
2019-02-05T06:50:20.933Z,14.23
2019-02-05T06:51:23.893Z,14.25
2019-02-05T06:52:24.887Z,16.07
2019-02-05T06:53:25.860Z,14.70
2019-02-05T06:54:26.713Z,14.95
2019-02-05T06:55:27.657Z,14.28
2019-02-05T06:56:28.506Z,15.15
2019-02-05T06:57:29.344Z,15.85
2019-02-05T06:58:30.203Z,15.90
2019-02-05T06:59:31.223Z,17.82
2019-02-05T07:00:32.125Z,16.87
2019-02-05T07:01:34.110Z,16.42
2019-02-05T07:13:18.164Z,21.62
2019-02-05T07:14:19.107Z,19.07
2019-02-05T07:15:20.044Z,21.87
2019-02-05T07:16:20.976Z,19.00
2019-02-05T07:17:21.847Z,21.95
2019-02-05T07:18:22.835Z,21.65
2019-02-05T07:19:23.785Z,20.32
2019-02-05T07:20:24.633Z,20.17
2019-02-05T07:21:25.863Z,18.75
2019-02-05T07:22:26.872Z,22.30
2019-02-05T07:23:27.816Z,21.02
2019-02-05T07:24:28.739Z,22.62
2019-02-05T07:25:29.614Z,20.57
2019-02-05T07:26:30.587Z,21.35
2019-02-05T07:27:31.454Z,21.62
2019-02-05T07:28:32.291Z,21.37
2019-02-05T07:29:33.744Z,20.95
2019-02-05T07:30:34.571Z,20.02
2019-02-05T07:31:35.417Z,25.77
2019-02-05T07:32:36.403Z,23.65
2019-02-05T07:33:37.325Z,19.45
2019-02-05T07:34:38.315Z,21.70
2019-02-05T07:35:39.254Z,21.30
2019-02-05T07:36:40.187Z,23.70
2019-02-05T07:37:42.421Z,23.07
2019-02-05T07:38:43.420Z,25.00
2019-02-05T07:39:44.391Z,19.87
2019-02-05T07:40:45.352Z,20.45
2019-02-05T07:41:46.287Z,23.95
2019-02-05T07:42:47.520Z,21.52
2019-02-05T07:43:48.387Z,23.05
2019-02-05T07:44:49.357Z,24.85
2019-02-05T07:45:50.784Z,22.15
2019-02-05T07:46:51.619Z,21.93
2019-02-05T07:47:52.558Z,22.48
2019-02-05T07:48:53.477Z,22.98
2019-02-05T07:49:54.407Z,23.67
2019-02-05T07:50:55.569Z,20.85
2019-02-05T07:51:56.509Z,23.55
2019-02-05T07:52:57.441Z,26.68
2019-02-05T07:53:58.696Z,24.67
2019-02-05T07:54:59.624Z,22.13
2019-02-05T07:56:00.590Z,22.35
2019-02-05T07:58:21.899Z,25.23
2019-02-05T07:59:22.854Z,24.15
2019-02-05T08:00:23.781Z,26.05
2019-02-05T08:01:24.764Z,26.55
2019-02-05T08:02:25.678Z,23.12
2019-02-05T08:03:26.541Z,25.10
2019-02-05T08:04:27.883Z,24.23
2019-02-05T08:05:28.956Z,23.90
2019-02-05T08:06:29.864Z,24.45
2019-02-05T08:07:30.811Z,23.12
2019-02-05T08:08:31.820Z,25.37
2019-02-05T08:09:32.752Z,25.72
2019-02-05T08:10:33.703Z,22.62
2019-02-05T08:11:34.564Z,27.05
2019-02-05T08:12:35.485Z,23.77
2019-02-05T08:13:36.457Z,22.50
2019-02-05T08:14:37.405Z,26.77
2019-02-05T08:15:38.370Z,22.73
2019-02-05T08:16:39.308Z,24.92
2019-02-05T08:17:40.298Z,25.43
2019-02-05T08:18:41.229Z,21.62
2019-02-05T08:19:42.078Z,20.43
2019-02-05T08:20:43.340Z,20.30
2019-02-05T08:21:44.190Z,21.30
2019-02-05T08:22:45.112Z,22.60
2019-02-05T08:23:45.968Z,21.80
2019-02-05T08:24:46.902Z,21.65
2019-02-05T08:25:47.842Z,20.95
2019-02-05T08:26:48.766Z,21.37
2019-02-05T08:27:49.845Z,20.27
2019-02-05T08:28:51.084Z,19.48
2019-02-05T08:29:52.019Z,21.45
2019-02-05T08:30:52.961Z,21.45
2019-02-05T08:31:53.948Z,19.20
2019-02-05T08:32:54.927Z,20.52
2019-02-05T08:33:55.903Z,21.87
2019-02-05T08:34:56.880Z,20.20
2019-02-05T08:35:57.822Z,21.05
2019-02-05T08:36:59.227Z,25.02
2019-02-05T08:38:00.145Z,23.87
2019-02-05T08:39:01.106Z,22.55
2019-02-05T08:40:02.065Z,19.80
2019-02-05T08:41:03.131Z,20.82
2019-02-05T08:42:04.074Z,22.27
2019-02-05T08:43:05.122Z,19.42
2019-02-05T08:44:06.129Z,22.90
2019-02-05T08:45:07.475Z,20.00
2019-02-05T08:46:08.587Z,20.45
2019-02-05T08:47:09.518Z,20.85
2019-02-05T08:48:10.469Z,21.70
2019-02-05T08:49:11.456Z,19.73
2019-02-05T08:50:12.410Z,21.90
2019-02-05T08:51:13.462Z,21.52
2019-02-05T08:52:14.474Z,21.75
2019-02-05T08:53:15.691Z,19.98
2019-02-05T08:54:16.623Z,19.12
2019-02-05T08:55:17.598Z,21.52
2019-02-05T08:56:18.475Z,23.32
2019-02-05T08:57:19.373Z,24.27
2019-02-05T08:58:30.282Z,20.95
2019-02-05T08:59:24.105Z,24.20
2019-02-05T09:00:25.116Z,23.40
2019-02-05T09:01:26.055Z,22.37
2019-02-05T09:02:27.203Z,19.92
2019-02-05T09:03:28.177Z,21.57
2019-02-05T09:04:29.147Z,24.32
2019-02-05T09:05:30.034Z,26.37
2019-02-05T09:06:30.894Z,23.32
2019-02-05T09:07:31.810Z,24.75
2019-02-05T09:08:32.651Z,24.67
2019-02-05T09:09:33.998Z,22.30
2019-02-05T09:10:35.509Z,23.15
2019-02-05T09:11:36.453Z,24.52
2019-02-05T09:12:37.392Z,24.37
2019-02-05T09:13:38.397Z,22.90
2019-02-05T09:14:39.353Z,24.60
2019-02-05T09:15:40.399Z,24.45
2019-02-05T09:16:41.372Z,22.10
2019-02-05T09:17:42.201Z,25.35
2019-02-05T09:18:43.360Z,24.40
2019-02-05T09:19:44.421Z,20.65
2019-02-05T09:20:45.351Z,22.00
2019-02-05T09:21:46.353Z,24.60
2019-02-05T09:22:47.301Z,25.08
2019-02-05T09:23:48.237Z,23.27
2019-02-05T09:24:49.177Z,28.17
2019-02-05T09:25:50.449Z,27.52
2019-02-05T09:26:51.427Z,30.30
2019-02-05T09:27:52.679Z,26.05
2019-02-05T09:28:53.620Z,27.22
2019-02-05T09:29:54.598Z,30.35
2019-02-05T09:30:55.436Z,25.72
2019-02-05T09:31:56.323Z,27.82
2019-02-05T09:32:57.206Z,26.62
2019-02-05T09:33:58.132Z,29.55
2019-02-05T09:34:59.062Z,30.75
2019-02-05T09:36:00.281Z,27.58
2019-02-05T09:37:01.280Z,27.70
2019-02-05T09:38:02.204Z,30.30
2019-02-05T09:39:03.144Z,28.45
2019-02-05T09:40:04.103Z,27.58
2019-02-05T09:41:04.934Z,34.55
2019-02-05T09:42:05.952Z,25.97
2019-02-05T09:43:06.899Z,28.73
2019-02-05T09:44:08.124Z,26.87
2019-02-05T09:45:09.192Z,29.25
2019-02-05T09:46:10.042Z,33.78
2019-02-05T09:47:11.038Z,33.80
2019-02-05T09:48:12.039Z,29.30
2019-02-05T09:49:13.017Z,25.60
2019-02-05T09:50:13.938Z,32.60
2019-02-05T09:51:15.093Z,30.35
2019-02-05T09:52:16.312Z,30.32
2019-02-05T09:53:17.198Z,30.12
2019-02-05T09:54:18.132Z,25.77
2019-02-05T09:55:19.087Z,24.55
2019-02-05T09:56:20.029Z,27.22
2019-02-05T09:57:21.234Z,26.37
2019-02-05T09:58:22.191Z,25.17
2019-02-05T09:59:23.140Z,26.27
2019-02-05T10:00:24.063Z,26.82
2019-02-05T10:01:24.967Z,22.60
2019-02-05T10:02:25.827Z,24.07
2019-02-05T10:03:26.684Z,23.77
2019-02-05T10:04:27.693Z,23.35
2019-02-05T10:05:28.633Z,25.65
2019-02-05T10:06:29.479Z,25.60
2019-02-05T10:07:30.445Z,24.98
2019-02-05T10:08:31.391Z,23.60
2019-02-05T10:09:32.633Z,26.70
2019-02-05T10:10:33.621Z,38.20
2019-02-05T10:11:34.838Z,26.65
2019-02-05T10:12:35.713Z,27.10
2019-02-05T10:13:36.819Z,28.12
2019-02-05T10:14:37.786Z,24.63
2019-02-05T10:15:38.715Z,26.55
2019-02-05T10:16:39.654Z,26.73
2019-02-05T10:17:40.994Z,30.40
2019-02-05T10:18:42.005Z,25.25
2019-02-05T10:19:42.919Z,26.42
2019-02-05T10:20:43.867Z,26.52
2019-02-05T10:21:44.828Z,26.15
2019-02-05T10:22:46.092Z,27.15
2019-02-05T10:23:46.935Z,26.68
2019-02-05T10:24:49.833Z,30.08
2019-02-05T10:25:50.634Z,29.70
2019-02-05T10:26:51.568Z,31.40
2019-02-05T10:27:53.602Z,28.10
2019-02-05T10:28:54.517Z,34.40
2019-02-05T10:29:59.331Z,28.52
2019-02-05T10:30:58.245Z,27.22
2019-02-05T10:31:59.132Z,30.72
2019-02-05T10:33:00.264Z,26.65
2019-02-05T10:34:01.216Z,23.60
2019-02-05T10:35:02.786Z,27.02
2019-02-05T10:36:03.771Z,29.05
2019-02-05T10:37:04.722Z,29.80
2019-02-05T10:38:05.630Z,33.58
2019-02-05T10:39:06.493Z,28.60
2019-02-05T10:40:07.417Z,34.18
2019-02-05T10:41:08.565Z,32.38
2019-02-05T10:42:09.484Z,29.02
2019-02-05T10:43:10.934Z,31.37
2019-02-05T10:44:11.875Z,31.82
2019-02-05T10:45:12.822Z,31.40
2019-02-05T10:46:13.780Z,34.38
2019-02-05T10:47:14.654Z,32.03
2019-02-05T10:48:17.494Z,36.15
2019-02-05T10:49:18.268Z,34.00
2019-02-05T10:50:19.207Z,36.13
2019-02-05T10:51:20.291Z,33.10
2019-02-05T10:52:21.724Z,34.33
2019-02-05T10:53:22.659Z,31.48
2019-02-05T10:54:23.659Z,30.72
2019-02-05T10:55:24.583Z,35.48
2019-02-05T10:56:25.509Z,31.42
2019-02-05T10:57:26.343Z,31.80
2019-02-05T10:58:27.366Z,31.17
2019-02-05T10:59:28.572Z,32.28
2019-02-05T11:00:29.926Z,28.75
2019-02-05T11:01:30.864Z,30.02
2019-02-05T11:02:31.777Z,31.87
2019-02-05T11:03:32.830Z,29.70
2019-02-05T11:04:33.687Z,24.07
2019-02-05T11:05:34.645Z,25.40
2019-02-05T11:06:35.629Z,26.15
2019-02-05T11:07:36.562Z,26.42
2019-02-05T11:08:37.711Z,27.15
2019-02-05T11:09:38.655Z,28.47
2019-02-05T11:10:39.585Z,28.12
2019-02-05T11:11:40.566Z,28.92
2019-02-05T11:12:41.725Z,28.38
2019-02-05T11:13:42.672Z,29.30
2019-02-05T11:14:43.748Z,29.27
2019-02-05T11:15:44.686Z,32.30
2019-02-05T11:16:45.713Z,29.25
2019-02-05T11:17:46.896Z,31.42
2019-02-05T11:18:47.871Z,31.45
2019-02-05T11:19:48.721Z,28.07
2019-02-05T11:20:49.652Z,29.30
2019-02-05T11:21:50.912Z,30.40
2019-02-05T11:22:51.875Z,32.80
2019-02-05T11:23:52.836Z,34.33
2019-02-05T11:24:53.754Z,34.05
2019-02-05T11:25:55.202Z,35.30
2019-02-05T11:26:58.384Z,38.78
2019-02-05T11:27:59.331Z,40.78
2019-02-05T11:29:00.430Z,39.65
2019-02-05T11:30:03.944Z,37.40
2019-02-05T11:31:05.088Z,39.03
2019-02-05T11:32:06.070Z,35.23
2019-02-05T11:33:07.045Z,39.67
2019-02-05T11:34:07.963Z,38.00
2019-02-05T11:35:09.104Z,34.55
2019-02-05T11:36:09.984Z,31.33
2019-02-05T11:37:10.937Z,37.28
2019-02-05T11:38:11.851Z,48.70
2019-02-05T11:39:12.791Z,42.23
2019-02-05T11:40:13.703Z,38.40
2019-02-05T11:41:14.716Z,34.15
2019-02-05T11:42:15.652Z,36.88
2019-02-05T11:43:17.018Z,34.40
2019-02-05T11:44:17.970Z,38.08
2019-02-05T11:45:18.960Z,40.78
2019-02-05T11:46:19.889Z,39.05
2019-02-05T11:47:20.849Z,34.55
2019-02-05T11:48:21.840Z,40.78
2019-02-05T11:49:22.777Z,49.90
2019-02-05T11:50:23.720Z,38.55
2019-02-05T11:51:24.940Z,32.48
2019-02-05T11:52:25.908Z,35.00
2019-02-05T11:53:26.887Z,31.27
2019-02-05T11:54:27.963Z,29.45
2019-02-05T11:55:29.135Z,31.65
2019-02-05T11:56:30.052Z,37.03
2019-02-05T11:57:30.882Z,28.98
2019-02-05T11:58:31.910Z,42.45
2019-02-05T11:59:33.270Z,48.35
2019-02-05T12:00:34.246Z,42.90
2019-02-05T12:01:39.102Z,46.60
2019-02-05T12:02:37.940Z,29.55
2019-02-05T12:03:38.813Z,28.42
2019-02-05T12:04:39.751Z,28.02
2019-02-05T12:05:40.701Z,30.52
2019-02-05T12:06:41.693Z,31.17
2019-02-05T12:07:42.601Z,27.07
2019-02-05T12:08:43.487Z,27.87
2019-02-05T12:09:44.422Z,27.55
2019-02-05T12:10:45.412Z,31.10
2019-02-05T12:11:46.249Z,29.32
2019-02-05T12:12:47.207Z,32.33
2019-02-05T12:13:48.127Z,33.40
2019-02-05T12:14:50.413Z,31.65
2019-02-05T12:15:51.524Z,30.57
2019-02-05T12:16:52.780Z,30.55
2019-02-05T12:17:53.875Z,35.63
2019-02-05T12:18:54.809Z,41.75
2019-02-05T12:19:55.841Z,61.33
2019-02-05T12:20:56.964Z,44.33
2019-02-05T12:21:57.915Z,36.30
2019-02-05T12:22:58.829Z,38.50
2019-02-05T12:23:59.844Z,33.38
2019-02-05T12:25:01.322Z,29.42
2019-02-05T12:26:02.457Z,31.10
2019-02-05T12:27:03.431Z,29.18
2019-02-05T12:28:04.366Z,32.93
2019-02-05T12:29:06.498Z,32.08
2019-02-05T12:30:07.629Z,31.17
2019-02-05T12:31:08.539Z,31.70
2019-02-05T12:32:09.498Z,37.63
2019-02-05T12:33:10.739Z,36.85
2019-02-05T12:34:11.631Z,35.90
2019-02-05T12:35:12.508Z,30.75
2019-02-05T12:36:13.494Z,29.10
2019-02-05T12:37:14.428Z,31.12
2019-02-05T12:38:15.312Z,32.30
2019-02-05T12:39:16.246Z,31.05
2019-02-05T12:40:17.496Z,26.15
2019-02-05T12:41:18.416Z,30.17
2019-02-05T12:42:19.253Z,30.85
2019-02-05T12:43:20.121Z,27.45
2019-02-05T12:44:21.059Z,32.50
2019-02-05T12:45:21.995Z,30.17
2019-02-05T12:46:22.909Z,27.15
2019-02-05T12:47:23.837Z,28.90
2019-02-05T12:48:24.767Z,27.67
2019-02-05T12:49:25.647Z,26.27
2019-02-05T12:50:27.228Z,29.48
2019-02-05T12:51:28.171Z,29.12
2019-02-05T12:52:29.104Z,27.20
2019-02-05T12:53:30.034Z,27.37
2019-02-05T12:54:30.977Z,26.30
2019-02-05T12:55:31.818Z,26.77
2019-02-05T12:56:32.801Z,27.90
2019-02-05T12:57:33.665Z,28.32
2019-02-05T12:58:34.885Z,30.23
2019-02-05T12:59:35.789Z,28.80
2019-02-05T13:00:36.715Z,30.72
2019-02-05T13:01:37.563Z,33.30
2019-02-05T13:02:38.498Z,30.90
2019-02-05T13:03:39.559Z,28.70
2019-02-05T13:04:40.526Z,29.02
2019-02-05T13:05:41.457Z,32.70
2019-02-05T13:06:42.319Z,36.15
2019-02-05T13:07:43.596Z,32.23
2019-02-05T13:08:44.440Z,32.40
2019-02-05T13:09:45.295Z,32.45
2019-02-05T13:10:46.163Z,32.58
2019-02-05T13:11:47.054Z,28.92
2019-02-05T13:12:47.979Z,28.85
2019-02-05T13:13:48.814Z,29.30
2019-02-05T13:14:49.676Z,27.35
2019-02-05T13:15:50.676Z,28.40
2019-02-05T13:16:52.039Z,32.15
2019-02-05T13:17:53.050Z,29.70
2019-02-05T13:18:53.963Z,30.23
2019-02-05T13:19:55.208Z,33.75
2019-02-05T13:20:56.216Z,30.32
2019-02-05T13:21:59.114Z,31.23
2019-02-05T13:22:59.916Z,28.40
2019-02-05T13:24:00.861Z,24.52